createdAt,value
2023-04-07T00:00:32.229Z,2.1
2023-04-07T00:01:39.276Z,2
2023-04-07T00:02:46.062Z,2.2
2023-04-07T00:03:53.138Z,2.2
2023-04-07T00:04:59.835Z,2.2
2023-04-07T00:06:06.510Z,2.3
2023-04-07T00:07:13.278Z,2.3
2023-04-07T00:08:20.013Z,2.4
2023-04-07T00:09:26.804Z,2.4
2023-04-07T00:10:33.603Z,2.3
2023-04-07T00:11:40.461Z,2.4
2023-04-07T00:12:47.269Z,2.4
2023-04-07T00:13:54.365Z,2.5
2023-04-07T00:15:00.964Z,2.3
2023-04-07T00:16:08.058Z,2.3
2023-04-07T00:17:14.761Z,2.3
2023-04-07T00:18:21.449Z,2.3
2023-04-07T00:19:28.419Z,2.2
2023-04-07T00:20:35.208Z,2.3
2023-04-07T00:21:41.891Z,2.2
2023-04-07T00:22:48.610Z,2.3
2023-04-07T00:23:55.650Z,2.1
2023-04-07T00:25:02.330Z,2.2
2023-04-07T00:26:09.403Z,2.2
2023-04-07T00:27:16.127Z,2.1
2023-04-07T00:28:22.920Z,1.9
2023-04-07T00:29:29.741Z,2
2023-04-07T00:30:36.654Z,2.1
2023-04-07T00:31:43.409Z,2.1
2023-04-07T00:32:50.071Z,2
2023-04-07T00:33:57.118Z,2
2023-04-07T00:35:03.811Z,1.9
2023-04-07T00:36:10.817Z,1.8
2023-04-07T00:37:17.455Z,1.9
2023-04-07T00:38:24.117Z,2
2023-04-07T00:39:30.866Z,2.1
2023-04-07T00:40:37.794Z,1.8
2023-04-07T00:41:44.588Z,2
2023-04-07T00:42:51.377Z,1.9
2023-04-07T00:43:58.125Z,1.7
2023-04-07T00:45:04.887Z,1.8
2023-04-07T00:46:11.960Z,1.8
2023-04-07T00:47:18.888Z,1.6
2023-04-07T00:48:25.644Z,1.6
2023-04-07T00:49:32.391Z,1.8
2023-04-07T00:50:39.236Z,1.9
2023-04-07T00:51:46.010Z,1.9
2023-04-07T00:52:52.748Z,1.9
2023-04-07T00:53:59.554Z,1.7
2023-04-07T00:55:06.366Z,1.7
2023-04-07T00:56:13.229Z,1.6
2023-04-07T00:57:20.068Z,1.4
2023-04-07T00:58:26.938Z,1.8
2023-04-07T00:59:33.614Z,1.7
2023-04-07T01:00:40.469Z,1.8
2023-04-07T01:01:52.345Z,1.6
2023-04-07T01:03:02.229Z,1.8
2023-04-07T01:04:08.851Z,1.9
2023-04-07T01:05:18.480Z,2
2023-04-07T01:06:33.463Z,2
2023-04-07T01:07:40.244Z,2.1
2023-04-07T01:08:49.654Z,1.9
2023-04-07T01:10:06.623Z,1.7
2023-04-07T01:11:13.379Z,1.9
2023-04-07T01:12:23.074Z,2
2023-04-07T01:13:34.827Z,2
2023-04-07T01:14:41.588Z,1.9
2023-04-07T01:15:51.276Z,1.8
2023-04-07T01:16:58.001Z,1.9
2023-04-07T01:18:04.814Z,2
2023-04-07T01:19:14.147Z,2
2023-04-07T01:20:31.112Z,2
2023-04-07T01:21:37.954Z,2
2023-04-07T01:22:44.794Z,1.9
2023-04-07T01:23:54.531Z,2
2023-04-07T01:25:03.753Z,1.9
2023-04-07T01:26:15.641Z,1.9
2023-04-07T01:27:25.188Z,1.9
2023-04-07T01:28:37.113Z,2
2023-04-07T01:29:46.853Z,2.1
2023-04-07T01:30:53.557Z,1.9
2023-04-07T01:32:00.459Z,2
2023-04-07T01:33:07.216Z,2
2023-04-07T01:34:14.053Z,1.9
2023-04-07T01:35:20.883Z,1.9
2023-04-07T01:36:27.612Z,2
2023-04-07T01:37:34.489Z,2
2023-04-07T01:38:41.290Z,1.9
2023-04-07T01:39:48.018Z,1.9
2023-04-07T01:40:54.822Z,2
2023-04-07T01:42:01.608Z,2.1
2023-04-07T01:43:08.431Z,2
2023-04-07T01:44:15.232Z,2
2023-04-07T01:45:21.965Z,2.1
2023-04-07T01:46:28.838Z,2.2
2023-04-07T01:47:35.976Z,2.3
2023-04-07T01:48:42.364Z,2.3
2023-04-07T01:49:49.064Z,2.2
2023-04-07T01:50:55.735Z,2.2
2023-04-07T01:52:02.504Z,2.3
2023-04-07T01:53:09.225Z,2.2
2023-04-07T01:54:15.946Z,2
2023-04-07T01:55:22.653Z,1.9
2023-04-07T01:56:29.473Z,2
2023-04-07T01:57:36.256Z,1.8
2023-04-07T01:58:42.961Z,2
2023-04-07T01:59:49.817Z,2.1
2023-04-07T02:00:56.609Z,2
2023-04-07T02:02:03.487Z,1.9
2023-04-07T02:03:10.419Z,2
2023-04-07T02:04:17.006Z,1.9
2023-04-07T02:05:28.926Z,2
2023-04-07T02:06:35.645Z,2
2023-04-07T02:07:42.372Z,2.1
2023-04-07T02:08:57.105Z,2
2023-04-07T02:10:03.841Z,1.9
2023-04-07T02:11:10.893Z,1.9
2023-04-07T02:12:17.633Z,1.8
2023-04-07T02:13:24.465Z,1.8
2023-04-07T02:14:31.212Z,1.9
2023-04-07T02:15:37.977Z,2
2023-04-07T02:16:46.266Z,1.7
2023-04-07T02:17:51.486Z,1.8
2023-04-07T02:18:58.193Z,1.9
2023-04-07T02:20:05.011Z,2
2023-04-07T02:21:11.788Z,1.9
2023-04-07T02:22:18.553Z,2
2023-04-07T02:23:25.313Z,2
2023-04-07T02:24:32.180Z,2
2023-04-07T02:25:39.070Z,2
2023-04-07T02:26:45.760Z,2
2023-04-07T02:27:52.492Z,2
2023-04-07T02:28:59.327Z,2
2023-04-07T02:30:06.116Z,2
2023-04-07T02:31:13.256Z,2
2023-04-07T02:32:20.072Z,2
2023-04-07T02:33:26.759Z,2
2023-04-07T02:34:33.571Z,2
2023-04-07T02:35:40.320Z,2
2023-04-07T02:36:47.264Z,2
2023-04-07T02:37:54.075Z,1.9
2023-04-07T02:39:00.724Z,2
2023-04-07T02:40:07.392Z,2
2023-04-07T02:41:14.274Z,2
2023-04-07T02:42:21.000Z,1.9
2023-04-07T02:43:27.867Z,1.9
2023-04-07T02:44:34.552Z,2
2023-04-07T02:45:41.285Z,1.9
2023-04-07T02:46:47.923Z,2.1
2023-04-07T02:47:54.939Z,2
2023-04-07T02:49:01.619Z,1.8
2023-04-07T02:50:08.380Z,2
2023-04-07T02:51:15.070Z,1.8
2023-04-07T02:52:21.783Z,1.9
2023-04-07T02:53:28.546Z,1.9
2023-04-07T02:54:35.300Z,2
2023-04-07T02:55:42.001Z,1.9
2023-04-07T02:56:48.824Z,1.9
2023-04-07T02:57:55.530Z,2.1
2023-04-07T02:59:02.421Z,2
2023-04-07T03:00:09.254Z,2.1
2023-04-07T03:01:16.237Z,2.1
2023-04-07T03:02:22.943Z,1.9
2023-04-07T03:03:29.719Z,2.1
2023-04-07T03:04:36.400Z,2.2
2023-04-07T03:05:43.255Z,2.2
2023-04-07T03:06:50.047Z,2.1
2023-04-07T03:07:57.039Z,2
2023-04-07T03:09:03.810Z,2.1
2023-04-07T03:10:10.720Z,2.1
2023-04-07T03:11:17.520Z,2.1
2023-04-07T03:12:24.241Z,2.1
2023-04-07T03:13:31.092Z,2.1
2023-04-07T03:14:37.908Z,2.2
2023-04-07T03:15:44.687Z,2.2
2023-04-07T03:16:51.557Z,2.1
2023-04-07T03:17:58.380Z,2.1
2023-04-07T03:19:05.072Z,2.1
2023-04-07T03:20:11.795Z,2.2
2023-04-07T03:21:18.708Z,2.2
2023-04-07T03:22:25.442Z,2.1
2023-04-07T03:23:32.122Z,2.2
2023-04-07T03:24:38.838Z,2
2023-04-07T03:25:47.435Z,2.2
2023-04-07T03:26:52.494Z,2.2
2023-04-07T03:27:59.265Z,2.2
2023-04-07T03:29:06.152Z,2.2
2023-04-07T03:30:12.866Z,2.1
2023-04-07T03:31:19.750Z,1.8
2023-04-07T03:32:26.476Z,1.9
2023-04-07T03:33:33.194Z,2.1
2023-04-07T03:34:39.891Z,2
2023-04-07T03:35:46.600Z,1.9
2023-04-07T03:36:53.422Z,1.9
2023-04-07T03:38:00.370Z,2
2023-04-07T03:39:07.158Z,2.1
2023-04-07T03:40:13.848Z,2.1
2023-04-07T03:41:20.704Z,2
2023-04-07T03:42:27.561Z,2
2023-04-07T03:43:34.329Z,2.1
2023-04-07T03:44:40.981Z,1.9
2023-04-07T03:45:47.686Z,2
2023-04-07T03:46:54.478Z,2
2023-04-07T03:48:01.227Z,1.9
2023-04-07T03:49:08.225Z,1.9
2023-04-07T03:50:14.983Z,2
2023-04-07T03:51:21.799Z,2.1
2023-04-07T03:52:28.583Z,2
2023-04-07T03:53:35.437Z,2
2023-04-07T03:54:42.198Z,2
2023-04-07T03:55:49.022Z,1.8
2023-04-07T03:56:55.739Z,1.9
2023-04-07T03:58:02.568Z,1.9
2023-04-07T03:59:09.394Z,1.9
2023-04-07T04:00:16.225Z,1.9
2023-04-07T04:01:23.003Z,2
2023-04-07T04:02:29.844Z,2
2023-04-07T04:03:36.681Z,2
2023-04-07T04:04:43.343Z,2
2023-04-07T04:05:49.973Z,1.9
2023-04-07T04:06:56.692Z,2
2023-04-07T04:08:03.505Z,1.9
2023-04-07T04:09:10.296Z,1.8
2023-04-07T04:10:17.097Z,1.8
2023-04-07T04:11:23.858Z,1.7
2023-04-07T04:12:30.623Z,1.8
2023-04-07T04:13:37.382Z,2
2023-04-07T04:14:44.123Z,1.8
2023-04-07T04:15:50.957Z,1.7
2023-04-07T04:16:57.734Z,1.6
2023-04-07T04:18:04.542Z,1.6
2023-04-07T04:19:11.247Z,1.6
2023-04-07T04:20:17.944Z,1.7
2023-04-07T04:21:24.682Z,1.7
2023-04-07T04:22:31.601Z,1.8
2023-04-07T04:23:38.400Z,1.8
2023-04-07T04:24:45.081Z,1.8
2023-04-07T04:25:51.760Z,1.9
2023-04-07T04:26:58.558Z,2
2023-04-07T04:28:05.295Z,1.9
2023-04-07T04:29:12.102Z,2
2023-04-07T04:30:18.837Z,1.9
2023-04-07T04:31:25.629Z,1.8
2023-04-07T04:32:32.413Z,1.8
2023-04-07T04:33:39.240Z,1.9
2023-04-07T04:34:45.948Z,1.7
2023-04-07T04:35:52.754Z,1.9
2023-04-07T04:36:59.567Z,1.9
2023-04-07T04:38:06.272Z,1.8
2023-04-07T04:39:13.092Z,1.8
2023-04-07T04:40:19.907Z,1.8
2023-04-07T04:41:26.711Z,2
2023-04-07T04:42:33.504Z,1.8
2023-04-07T04:43:40.233Z,1.9
2023-04-07T04:44:47.105Z,1.8
2023-04-07T04:45:53.959Z,1.9
2023-04-07T04:47:00.694Z,2
2023-04-07T04:48:07.488Z,1.9
2023-04-07T04:49:14.293Z,1.8
2023-04-07T04:50:21.228Z,1.8
2023-04-07T04:51:28.030Z,1.9
2023-04-07T04:52:34.742Z,1.9
2023-04-07T04:53:41.614Z,1.9
2023-04-07T04:54:48.341Z,2
2023-04-07T04:55:55.029Z,2
2023-04-07T04:57:01.763Z,1.9
2023-04-07T04:58:08.560Z,1.9
2023-04-07T04:59:15.232Z,1.9
2023-04-07T05:00:22.257Z,1.9
2023-04-07T05:01:29.780Z,1.9
2023-04-07T05:02:35.990Z,1.9
2023-04-07T05:03:43.021Z,1.8
2023-04-07T05:04:49.768Z,1.9
2023-04-07T05:05:56.268Z,1.9
2023-04-07T05:07:03.012Z,1.8
2023-04-07T05:08:09.731Z,1.7
2023-04-07T05:09:16.571Z,1.9
2023-04-07T05:10:23.234Z,1.9
2023-04-07T05:11:29.996Z,2
2023-04-07T05:12:36.833Z,2
2023-04-07T05:13:43.630Z,2.1
2023-04-07T05:14:50.427Z,2.1
2023-04-07T05:15:57.138Z,2.2
2023-04-07T05:17:03.970Z,2.1
2023-04-07T05:18:10.841Z,2.2
2023-04-07T05:19:17.603Z,2.2
2023-04-07T05:20:24.353Z,2.1
2023-04-07T05:21:31.082Z,2.2
2023-04-07T05:22:37.955Z,2.2
2023-04-07T05:23:44.743Z,2.3
2023-04-07T05:24:51.609Z,2.1
2023-04-07T05:25:58.481Z,2.1
2023-04-07T05:27:05.258Z,2.1
2023-04-07T05:28:11.937Z,2.3
2023-04-07T05:29:18.746Z,2.3
2023-04-07T05:30:25.426Z,2.3
2023-04-07T05:31:32.189Z,2.3
2023-04-07T05:32:39.028Z,2.3
2023-04-07T05:33:45.786Z,2.4
2023-04-07T05:34:52.626Z,2.4
2023-04-07T05:35:59.413Z,2.5
2023-04-07T05:37:06.292Z,2.5
2023-04-07T05:38:13.061Z,2.4
2023-04-07T05:39:19.874Z,2.2
2023-04-07T05:40:26.660Z,2.3
2023-04-07T05:41:33.335Z,2.3
2023-04-07T05:42:40.148Z,2.3
2023-04-07T05:43:46.799Z,2.4
2023-04-07T05:44:53.578Z,2.3
2023-04-07T05:46:00.431Z,2
2023-04-07T05:47:07.223Z,2.2
2023-04-07T05:48:14.005Z,2.1
2023-04-07T05:49:20.898Z,2.1
2023-04-07T05:50:27.560Z,2.1
2023-04-07T05:51:34.379Z,2
2023-04-07T05:52:41.182Z,2
2023-04-07T05:53:47.955Z,2
2023-04-07T05:54:54.647Z,2.1
2023-04-07T05:56:01.577Z,2.1
2023-04-07T05:57:08.412Z,1.9
2023-04-07T05:58:15.233Z,1.9
2023-04-07T05:59:22.036Z,1.7
2023-04-07T06:00:28.865Z,1.9
2023-04-07T06:01:35.833Z,2
2023-04-07T06:02:42.787Z,2.1
2023-04-07T06:03:49.676Z,2.2
2023-04-07T06:04:56.180Z,2.2
2023-04-07T06:06:03.044Z,2.1
2023-04-07T06:07:09.824Z,2
2023-04-07T06:08:16.695Z,2.1
2023-04-07T06:09:23.499Z,2.2
2023-04-07T06:10:30.370Z,2.1
2023-04-07T06:11:37.144Z,2.1
2023-04-07T06:12:43.914Z,2.1
2023-04-07T06:13:51.044Z,2.1
2023-04-07T06:14:57.495Z,2
2023-04-07T06:16:04.349Z,1.9
2023-04-07T06:17:11.072Z,2.1
2023-04-07T06:18:17.861Z,2.1
2023-04-07T06:19:24.765Z,2.3
2023-04-07T06:20:31.560Z,2.1
2023-04-07T06:21:38.220Z,2.3
2023-04-07T06:22:44.954Z,2.1
2023-04-07T06:23:52.016Z,2.2
2023-04-07T06:24:58.594Z,2.1
2023-04-07T06:26:05.505Z,2.2
2023-04-07T06:27:14.918Z,2.2
2023-04-07T06:28:21.740Z,2.1
2023-04-07T06:29:28.558Z,2.2
2023-04-07T06:30:37.957Z,2.2
2023-04-07T06:31:44.711Z,2.2
2023-04-07T06:32:51.622Z,2.2
2023-04-07T06:33:58.344Z,2.2
2023-04-07T06:35:05.191Z,2.3
2023-04-07T06:36:11.945Z,2.3
2023-04-07T06:37:19.797Z,2.2
2023-04-07T06:38:26.846Z,2.2
2023-04-07T06:39:33.609Z,2.4
2023-04-07T06:40:40.374Z,2.5
2023-04-07T06:41:47.161Z,2.5
2023-04-07T06:42:53.987Z,2.6
2023-04-07T06:44:00.738Z,2.6
2023-04-07T06:45:07.536Z,2.7
2023-04-07T06:46:14.416Z,2.7
2023-04-07T06:47:21.038Z,2.7
2023-04-07T06:48:27.955Z,2.7
2023-04-07T06:49:37.033Z,2.6
2023-04-07T06:50:41.704Z,2.5
2023-04-07T06:51:50.751Z,2.6
2023-04-07T06:52:57.599Z,2.5
2023-04-07T06:54:04.353Z,2.4
2023-04-07T06:55:11.298Z,2.3
2023-04-07T06:56:18.147Z,2.4
2023-04-07T06:57:24.914Z,2.2
2023-04-07T06:58:31.637Z,2.2
2023-04-07T06:59:38.502Z,2.2
2023-04-07T07:00:45.346Z,2.3
2023-04-07T07:01:52.134Z,2.5
2023-04-07T07:02:58.965Z,2.6
2023-04-07T07:04:05.741Z,2.5
2023-04-07T07:05:12.371Z,2.4
2023-04-07T07:06:19.394Z,2.4
2023-04-07T07:07:26.711Z,2.2
2023-04-07T07:08:33.590Z,2.3
2023-04-07T07:09:40.282Z,2.3
2023-04-07T07:10:47.061Z,2.5
2023-04-07T07:11:53.849Z,2.4
2023-04-07T07:13:00.597Z,2.5
2023-04-07T07:14:07.319Z,2.5
2023-04-07T07:15:14.143Z,2.5
2023-04-07T07:16:20.968Z,2.6
2023-04-07T07:17:27.705Z,2.7
2023-04-07T07:18:34.555Z,2.8
2023-04-07T07:19:41.271Z,2.8
2023-04-07T07:20:48.059Z,2.7
2023-04-07T07:21:54.792Z,2.6
2023-04-07T07:23:01.672Z,2.7
2023-04-07T07:24:08.420Z,2.7
2023-04-07T07:25:15.195Z,2.8
2023-04-07T07:26:21.840Z,2.9
2023-04-07T07:27:28.608Z,2.7
2023-04-07T07:28:35.569Z,2.9
2023-04-07T07:29:42.311Z,2.8
2023-04-07T07:30:49.034Z,2.8
2023-04-07T07:31:56.289Z,2.9
2023-04-07T07:33:02.621Z,2.9
2023-04-07T07:34:09.464Z,3
2023-04-07T07:35:16.170Z,3
2023-04-07T07:36:22.845Z,3
2023-04-07T07:37:29.549Z,3
2023-04-07T07:38:37.651Z,3.1
2023-04-07T07:39:43.176Z,3.1
2023-04-07T07:40:49.876Z,3.1
2023-04-07T07:41:56.693Z,3.1
2023-04-07T07:43:03.372Z,3.1
2023-04-07T07:44:10.206Z,3.1
2023-04-07T07:45:17.106Z,3
2023-04-07T07:46:23.932Z,2.8
2023-04-07T07:47:30.820Z,2.8
2023-04-07T07:48:37.455Z,2.9
2023-04-07T07:49:44.155Z,3
2023-04-07T07:50:50.998Z,3.1
2023-04-07T07:51:57.880Z,3.1
2023-04-07T07:53:04.766Z,3.1
2023-04-07T07:54:11.284Z,3.2
2023-04-07T07:55:17.961Z,3.2
2023-04-07T07:56:24.840Z,3.1
2023-04-07T07:57:31.586Z,2.9
2023-04-07T07:58:38.243Z,3
2023-04-07T07:59:45.002Z,3
2023-04-07T08:00:51.806Z,3
2023-04-07T08:01:58.759Z,3
2023-04-07T08:03:05.431Z,3.1
2023-04-07T08:04:12.279Z,3.1
2023-04-07T08:05:18.825Z,3.1
2023-04-07T08:06:25.597Z,2.9
2023-04-07T08:07:32.378Z,3
2023-04-07T08:08:39.141Z,3
2023-04-07T08:09:45.921Z,3.1
2023-04-07T08:10:52.751Z,3
2023-04-07T08:11:59.442Z,3.2
2023-04-07T08:13:06.352Z,3.1
2023-04-07T08:14:13.068Z,3.2
2023-04-07T08:15:19.852Z,3.1
2023-04-07T08:16:26.861Z,3.2
2023-04-07T08:17:33.451Z,3.1
2023-04-07T08:18:40.301Z,2.9
2023-04-07T08:19:46.984Z,3
2023-04-07T08:20:53.766Z,3.1
2023-04-07T08:22:00.507Z,2.8
2023-04-07T08:23:07.224Z,3.1
2023-04-07T08:24:14.039Z,3.2
2023-04-07T08:25:20.685Z,2.9
2023-04-07T08:26:27.427Z,2.9
2023-04-07T08:27:34.207Z,3.1
2023-04-07T08:28:41.069Z,3.2
2023-04-07T08:29:48.021Z,3.3
2023-04-07T08:31:02.510Z,3.4
2023-04-07T08:32:09.101Z,3.4
2023-04-07T08:33:15.898Z,3.5
2023-04-07T08:34:22.638Z,3.5
2023-04-07T08:35:29.302Z,3.5
2023-04-07T08:36:36.103Z,3.3
2023-04-07T08:37:42.867Z,3.2
2023-04-07T08:38:49.794Z,3.1
2023-04-07T08:39:56.520Z,3.2
2023-04-07T08:41:03.194Z,3.4
2023-04-07T08:42:14.978Z,3.3
2023-04-07T08:43:21.675Z,3.1
2023-04-07T08:44:28.317Z,3
2023-04-07T08:45:35.174Z,3.2
2023-04-07T08:46:41.955Z,3.3
2023-04-07T08:47:48.700Z,3.3
2023-04-07T08:48:55.389Z,3.4
2023-04-07T08:50:02.201Z,3.4
2023-04-07T08:51:14.128Z,3.4
2023-04-07T08:52:20.805Z,3.3
2023-04-07T08:53:27.602Z,3.3
2023-04-07T08:54:34.416Z,3.3
2023-04-07T08:55:41.132Z,3.2
2023-04-07T08:56:47.944Z,3.2
2023-04-07T08:57:54.625Z,3
2023-04-07T08:59:01.472Z,3.1
2023-04-07T09:00:08.388Z,2.9
2023-04-07T09:01:15.236Z,3
2023-04-07T09:02:22.042Z,2.9
2023-04-07T09:03:28.647Z,2.9
2023-04-07T09:04:35.386Z,3.1
2023-04-07T09:05:42.111Z,3.2
2023-04-07T09:06:51.840Z,3.1
2023-04-07T09:07:58.657Z,3.1
2023-04-07T09:09:05.473Z,3
2023-04-07T09:10:12.254Z,3.1
2023-04-07T09:11:19.124Z,3.1
2023-04-07T09:12:25.849Z,2.8
2023-04-07T09:13:32.624Z,2.7
2023-04-07T09:14:39.297Z,2.8
2023-04-07T09:15:46.033Z,2.8
2023-04-07T09:16:53.168Z,2.8
2023-04-07T09:17:59.864Z,3
2023-04-07T09:19:06.732Z,3
2023-04-07T09:20:13.548Z,3.1
2023-04-07T09:21:20.316Z,3
2023-04-07T09:22:27.058Z,3.1
2023-04-07T09:23:38.798Z,2.8
2023-04-07T09:24:45.589Z,2.9
2023-04-07T09:25:52.366Z,3
2023-04-07T09:26:59.188Z,3.2
2023-04-07T09:28:13.759Z,3.1
2023-04-07T09:29:20.442Z,3.2
2023-04-07T09:30:27.155Z,3.2
2023-04-07T09:31:33.833Z,3.2
2023-04-07T09:32:48.701Z,3.2
2023-04-07T09:33:55.259Z,3.1
2023-04-07T09:35:02.046Z,3
2023-04-07T09:36:08.949Z,3
2023-04-07T09:37:15.744Z,3
2023-04-07T09:38:22.542Z,2.8
2023-04-07T09:39:29.222Z,3
2023-04-07T09:40:36.019Z,3
2023-04-07T09:41:42.915Z,3.1
2023-04-07T09:42:49.561Z,3
2023-04-07T09:43:56.279Z,3
2023-04-07T09:45:03.011Z,3.1
2023-04-07T09:46:10.003Z,3.1
2023-04-07T09:47:19.405Z,3.1
2023-04-07T09:48:34.218Z,3.2
2023-04-07T09:49:40.965Z,3.2
2023-04-07T09:50:55.747Z,3.3
2023-04-07T09:52:10.447Z,3.2
2023-04-07T09:53:17.363Z,3
2023-04-07T09:54:23.901Z,3.2
2023-04-07T09:55:35.921Z,3.3
2023-04-07T09:56:42.690Z,3.2
2023-04-07T09:57:49.380Z,3.3
2023-04-07T09:58:56.126Z,3.5
2023-04-07T10:00:02.927Z,3.5
2023-04-07T10:01:10.287Z,3.5
2023-04-07T10:02:17.029Z,3.2
2023-04-07T10:03:23.776Z,3.4
2023-04-07T10:04:30.539Z,3.2
2023-04-07T10:05:37.291Z,3.3
2023-04-07T10:06:44.078Z,3.3
2023-04-07T10:07:50.871Z,3.2
2023-04-07T10:08:57.693Z,3.1
2023-04-07T10:10:04.348Z,2.9
2023-04-07T10:11:11.206Z,3.1
2023-04-07T10:12:17.860Z,3.2
2023-04-07T10:13:24.656Z,3.3
2023-04-07T10:14:31.425Z,3.3
2023-04-07T10:15:38.107Z,3.4
2023-04-07T10:16:44.918Z,3.3
2023-04-07T10:17:51.721Z,3.3
2023-04-07T10:18:58.404Z,3.4
2023-04-07T10:20:05.209Z,3.6
2023-04-07T10:21:12.166Z,3.6
2023-04-07T10:22:18.815Z,3.4
2023-04-07T10:23:25.665Z,3.4
2023-04-07T10:24:40.369Z,3.6
2023-04-07T10:25:57.236Z,3.5
2023-04-07T10:27:04.034Z,3.4
2023-04-07T10:28:10.734Z,3.4
2023-04-07T10:29:17.520Z,3.2
2023-04-07T10:30:24.307Z,3.1
2023-04-07T10:31:31.142Z,3.1
2023-04-07T10:32:37.908Z,3.1
2023-04-07T10:33:50.020Z,3.1
2023-04-07T10:34:56.421Z,3.3
2023-04-07T10:36:03.257Z,3.2
2023-04-07T10:37:09.970Z,3.4
2023-04-07T10:38:16.861Z,3.5
2023-04-07T10:39:23.569Z,3.3
2023-04-07T10:40:30.416Z,3.1
2023-04-07T10:41:37.237Z,3.3
2023-04-07T10:42:43.916Z,3.2
2023-04-07T10:43:53.557Z,3.3
2023-04-07T10:45:00.388Z,3.4
2023-04-07T10:46:10.226Z,3.5
2023-04-07T10:47:17.094Z,3.4
2023-04-07T10:48:23.786Z,3.2
2023-04-07T10:49:30.488Z,3.1
2023-04-07T10:50:39.820Z,3.1
2023-04-07T10:51:46.513Z,3.1
2023-04-07T10:53:03.264Z,3
2023-04-07T10:54:15.865Z,3.2
2023-04-07T10:55:25.797Z,3.2
2023-04-07T10:56:32.665Z,3.3
2023-04-07T10:57:49.551Z,3.1
2023-04-07T10:59:06.517Z,2.9
2023-04-07T11:00:18.438Z,3
2023-04-07T11:01:25.410Z,3.1
2023-04-07T11:02:32.357Z,3.3
2023-04-07T11:03:39.225Z,3.3
2023-04-07T11:04:45.960Z,3.3
2023-04-07T11:05:52.465Z,3.3
2023-04-07T11:07:09.245Z,3.4
2023-04-07T11:08:15.997Z,3.4
2023-04-07T11:09:32.877Z,3.4
2023-04-07T11:10:39.600Z,3.5
2023-04-07T11:11:46.383Z,3.3
2023-04-07T11:12:53.072Z,3.1
2023-04-07T11:14:02.708Z,3
2023-04-07T11:15:09.515Z,3.2
2023-04-07T11:16:21.244Z,3.2
2023-04-07T11:17:28.076Z,3.1
2023-04-07T11:18:34.685Z,3.3
2023-04-07T11:19:41.462Z,3.4
2023-04-07T11:20:53.300Z,3.4
2023-04-07T11:22:00.111Z,3.3
2023-04-07T11:23:17.000Z,3.5
2023-04-07T11:24:23.796Z,3.3
2023-04-07T11:25:38.677Z,3.4
2023-04-07T11:26:45.523Z,3.4
2023-04-07T11:27:52.278Z,3.5
2023-04-07T11:28:58.987Z,3.4
2023-04-07T11:30:05.683Z,3.2
2023-04-07T11:31:12.797Z,3.2
2023-04-07T11:32:25.628Z,3.3
2023-04-07T11:33:31.429Z,3.3
2023-04-07T11:34:38.332Z,3.5
2023-04-07T11:35:45.112Z,3.4
2023-04-07T11:36:56.973Z,3.2
2023-04-07T11:38:13.888Z,3.1
2023-04-07T11:39:20.564Z,3.3
2023-04-07T11:40:27.422Z,3.2
2023-04-07T11:41:37.122Z,3.2
2023-04-07T11:42:43.786Z,3.2
2023-04-07T11:43:50.564Z,3.3
2023-04-07T11:45:08.345Z,3.4
2023-04-07T11:46:19.326Z,3.6
2023-04-07T11:47:26.065Z,3.5
2023-04-07T11:48:37.943Z,3.5
2023-04-07T11:49:44.750Z,3.6
2023-04-07T11:50:51.629Z,3.6
2023-04-07T11:51:58.269Z,3.7
2023-04-07T11:53:05.010Z,3.6
2023-04-07T11:54:11.876Z,3.6
2023-04-07T11:55:20.263Z,3.6
2023-04-07T11:56:25.490Z,3.5
2023-04-07T11:57:32.233Z,3.6
2023-04-07T11:58:39.019Z,3.6
2023-04-07T11:59:53.466Z,3.6
2023-04-07T12:01:10.545Z,3.6
2023-04-07T12:02:17.416Z,3.7
2023-04-07T12:03:34.255Z,3.8
2023-04-07T12:04:44.166Z,3.9
2023-04-07T12:05:55.954Z,4
2023-04-07T12:07:02.643Z,3.8
2023-04-07T12:08:09.474Z,3.8
2023-04-07T12:09:16.238Z,3.5
2023-04-07T12:10:33.125Z,3.4
2023-04-07T12:11:39.877Z,3.3
2023-04-07T12:12:46.671Z,3.4
2023-04-07T12:13:53.406Z,3.5
2023-04-07T12:15:00.258Z,3.7
2023-04-07T12:16:07.258Z,3.8
2023-04-07T12:17:13.957Z,3.8
2023-04-07T12:18:23.269Z,3.9
2023-04-07T12:19:30.100Z,3.9
2023-04-07T12:20:37.721Z,3.8
2023-04-07T12:21:43.696Z,3.8
2023-04-07T12:22:50.470Z,3.9
2023-04-07T12:23:57.129Z,3.6
2023-04-07T12:25:03.897Z,3.6
2023-04-07T12:26:10.913Z,3.4
2023-04-07T12:27:17.738Z,3.6
2023-04-07T12:28:24.495Z,3.6
2023-04-07T12:29:31.122Z,3.7
2023-04-07T12:30:37.840Z,3.8
2023-04-07T12:31:44.724Z,3.8
2023-04-07T12:32:51.663Z,3.9
2023-04-07T12:33:58.406Z,3.8
2023-04-07T12:35:05.264Z,3.8
2023-04-07T12:36:12.132Z,3.9
2023-04-07T12:37:18.975Z,3.8
2023-04-07T12:38:25.735Z,3.6
2023-04-07T12:39:32.533Z,3.6
2023-04-07T12:40:39.311Z,3.4
2023-04-07T12:41:46.147Z,3.4
2023-04-07T12:42:52.700Z,3.2
2023-04-07T12:43:59.591Z,3.2
2023-04-07T12:45:06.333Z,3.3
2023-04-07T12:46:13.439Z,3.2
2023-04-07T12:47:20.280Z,3.3
2023-04-07T12:48:26.958Z,3.4
2023-04-07T12:49:33.864Z,3.4
2023-04-07T12:50:40.622Z,3.5
2023-04-07T12:51:47.334Z,3.4
2023-04-07T12:52:53.991Z,3.5
2023-04-07T12:54:00.784Z,3.5
2023-04-07T12:55:07.512Z,3.4
2023-04-07T12:56:14.475Z,3.4
2023-04-07T12:57:21.134Z,3.5
2023-04-07T12:58:27.878Z,3.5
2023-04-07T12:59:34.669Z,3.5
2023-04-07T13:00:41.533Z,3.6
2023-04-07T13:01:50.232Z,3.7
2023-04-07T13:02:55.153Z,3.7
2023-04-07T13:04:01.988Z,3.6
2023-04-07T13:05:08.519Z,3.7
2023-04-07T13:06:15.259Z,3.6
2023-04-07T13:07:22.054Z,3.6
2023-04-07T13:08:28.800Z,3.7
2023-04-07T13:09:35.677Z,3.8
2023-04-07T13:10:42.427Z,3.8
2023-04-07T13:11:49.119Z,3.8
2023-04-07T13:12:55.888Z,3.9
2023-04-07T13:14:02.616Z,3.9
2023-04-07T13:15:09.360Z,3.8
2023-04-07T13:16:16.164Z,3.8
2023-04-07T13:17:23.039Z,3.6
2023-04-07T13:18:29.674Z,3.6
2023-04-07T13:19:37.544Z,3.5
2023-04-07T13:20:43.229Z,3.6
2023-04-07T13:21:50.053Z,3.7
2023-04-07T13:24:03.613Z,3.7
2023-04-07T13:25:10.378Z,3.6
2023-04-07T13:26:17.129Z,3.8
2023-04-07T13:27:24.073Z,3.7
2023-04-07T13:28:30.853Z,3.7
2023-04-07T13:29:37.563Z,3.7
2023-04-07T13:30:44.464Z,3.7
2023-04-07T13:31:51.276Z,3.7
2023-04-07T13:32:58.064Z,3.8
2023-04-07T13:34:04.833Z,3.8
2023-04-07T13:35:11.489Z,3.8
2023-04-07T13:36:23.211Z,3.8
2023-04-07T13:37:28.068Z,3.8
2023-04-07T13:38:34.843Z,3.7
2023-04-07T13:39:41.800Z,3.7
2023-04-07T13:40:48.490Z,3.8
2023-04-07T13:41:55.243Z,3.8
2023-04-07T13:43:02.043Z,3.8
2023-04-07T13:44:08.883Z,3.8
2023-04-07T13:45:15.659Z,3.8
2023-04-07T13:46:28.287Z,3.8
2023-04-07T13:47:29.280Z,3.6
2023-04-07T13:48:38.853Z,3.6
2023-04-07T13:49:45.664Z,3.8
2023-04-07T13:50:52.540Z,3.9
2023-04-07T13:51:59.275Z,3.7
2023-04-07T13:53:06.173Z,3.8
2023-04-07T13:54:12.859Z,3.8
2023-04-07T13:55:19.508Z,3.7
2023-04-07T13:56:26.352Z,3.8
2023-04-07T13:57:33.081Z,3.8
2023-04-07T13:58:39.980Z,3.9
2023-04-07T13:59:46.720Z,3.9
2023-04-07T14:00:53.552Z,3.9
2023-04-07T14:02:00.477Z,3.8
2023-04-07T14:03:07.381Z,4
2023-04-07T14:04:14.046Z,4.1
2023-04-07T14:05:20.784Z,3.8
2023-04-07T14:06:27.634Z,4
2023-04-07T14:07:34.583Z,4
2023-04-07T14:08:41.461Z,4
2023-04-07T14:09:48.261Z,3.9
2023-04-07T14:10:55.103Z,4
2023-04-07T14:12:01.869Z,4.1
2023-04-07T14:13:08.779Z,4.2
2023-04-07T14:14:15.583Z,3.9
2023-04-07T14:15:22.388Z,3.9
2023-04-07T14:16:29.283Z,3.9
2023-04-07T14:17:36.015Z,3.9
2023-04-07T14:18:42.686Z,4
2023-04-07T14:19:49.491Z,3.9
2023-04-07T14:20:56.198Z,4
2023-04-07T14:22:02.898Z,4.1
2023-04-07T14:23:09.686Z,4.2
2023-04-07T14:24:16.492Z,4.2
2023-04-07T14:25:23.260Z,4.3
2023-04-07T14:26:30.037Z,4.1
2023-04-07T14:27:36.945Z,4
2023-04-07T14:28:43.694Z,4.1
2023-04-07T14:29:50.588Z,4.2
2023-04-07T14:30:57.380Z,4.3
2023-04-07T14:32:04.020Z,4.3
2023-04-07T14:33:10.865Z,4.2
2023-04-07T14:34:17.701Z,4.3
2023-04-07T14:35:24.536Z,4.2
2023-04-07T14:36:31.385Z,4
2023-04-07T14:37:38.184Z,4.2
2023-04-07T14:38:44.911Z,4
2023-04-07T14:40:02.304Z,4
2023-04-07T14:41:09.415Z,4.1
2023-04-07T14:42:05.378Z,4.1
2023-04-07T14:43:12.117Z,4.2
2023-04-07T14:44:18.832Z,4.3
2023-04-07T14:45:25.713Z,4.2
2023-04-07T14:46:32.461Z,4.2
2023-04-07T14:47:39.246Z,4.2
2023-04-07T14:48:46.080Z,4.3
2023-04-07T14:49:53.679Z,4.4
2023-04-07T14:51:09.159Z,4.2
2023-04-07T14:52:06.630Z,4.3
2023-04-07T14:53:13.381Z,4.4
2023-04-07T14:54:20.155Z,4.4
2023-04-07T14:55:26.879Z,4.5
2023-04-07T14:56:33.764Z,4.2
2023-04-07T14:57:40.595Z,4.4
2023-04-07T14:58:47.449Z,4.4
2023-04-07T14:59:54.316Z,4.3
2023-04-07T15:01:01.144Z,3.8
2023-04-07T15:02:08.042Z,3.9
2023-04-07T15:03:14.906Z,3.9
2023-04-07T15:04:21.737Z,3.9
2023-04-07T15:05:28.352Z,4.1
2023-04-07T15:06:35.153Z,4.2
2023-04-07T15:07:44.901Z,4.3
2023-04-07T15:08:51.699Z,3.9
2023-04-07T15:09:58.496Z,4
2023-04-07T15:11:05.337Z,4
2023-04-07T15:12:12.117Z,3.8
2023-04-07T15:13:18.848Z,3.9
2023-04-07T15:14:25.580Z,4.1
2023-04-07T15:15:32.491Z,4.2
2023-04-07T15:16:39.384Z,4.1
2023-04-07T15:17:46.174Z,4.1
2023-04-07T15:18:52.989Z,4
2023-04-07T15:19:59.763Z,3.9
2023-04-07T15:21:06.704Z,4
2023-04-07T15:22:13.514Z,3.9
2023-04-07T15:23:20.164Z,3.8
2023-04-07T15:24:26.898Z,4
2023-04-07T15:25:33.628Z,3.9
2023-04-07T15:26:40.552Z,4
2023-04-07T15:27:47.449Z,4
2023-04-07T15:28:54.155Z,4.1
2023-04-07T15:30:00.859Z,3.9
2023-04-07T15:31:07.724Z,4
2023-04-07T15:32:14.387Z,3.8
2023-04-07T15:33:21.264Z,4.1
2023-04-07T15:34:28.087Z,4.2
2023-04-07T15:35:34.811Z,4.3
2023-04-07T15:36:41.501Z,4.3
2023-04-07T15:37:48.359Z,4.2